createdAt,value
2022-09-28T00:00:55.873Z,48.17
2022-09-28T00:05:52.104Z,49.88
2022-09-28T00:10:54.380Z,48.00
2022-09-28T00:16:04.346Z,47.95
2022-09-28T00:21:04.621Z,50.60
2022-09-28T00:26:04.576Z,46.85
2022-09-28T00:31:01.029Z,50.42
2022-09-28T00:35:58.230Z,45.95
2022-09-28T00:40:55.876Z,42.88
2022-09-28T00:46:03.539Z,43.22
2022-09-28T00:51:01.823Z,40.80
2022-09-28T00:56:00.371Z,39.55
2022-09-28T01:00:58.031Z,37.65
2022-09-28T01:05:56.001Z,36.03
2022-09-28T01:10:52.221Z,37.20
2022-09-28T01:15:57.588Z,39.85
2022-09-28T01:21:02.334Z,40.03
2022-09-28T01:26:11.716Z,40.83
2022-09-28T01:31:13.212Z,41.03
2022-09-28T01:36:15.939Z,41.42
2022-09-28T01:41:13.227Z,47.25
2022-09-28T01:46:14.483Z,47.95
2022-09-28T01:51:15.864Z,49.28
2022-09-28T01:56:18.330Z,53.42
2022-09-28T02:01:18.516Z,52.13
2022-09-28T02:06:29.630Z,57.75
2022-09-28T02:11:25.991Z,60.15
2022-09-28T02:16:25.080Z,62.20
2022-09-28T02:21:39.568Z,62.33
2022-09-28T02:26:38.799Z,59.40
2022-09-28T02:31:35.405Z,61.03
2022-09-28T02:36:32.153Z,64.00
2022-09-28T02:41:41.738Z,65.10
2022-09-28T02:46:58.220Z,67.32
2022-09-28T02:52:13.599Z,69.90
2022-09-28T02:57:30.299Z,70.32
2022-09-28T03:02:26.691Z,72.82
2022-09-28T03:07:25.984Z,77.57
2022-09-28T03:12:23.495Z,72.53
2022-09-28T03:17:20.407Z,73.72
2022-09-28T03:22:16.675Z,70.90
2022-09-28T03:27:12.870Z,72.63
2022-09-28T03:32:09.086Z,76.32
2022-09-28T03:37:05.303Z,77.20
2022-09-28T03:42:01.603Z,79.40
2022-09-28T03:46:57.802Z,82.05
2022-09-28T03:51:54.056Z,80.88
2022-09-28T03:56:51.882Z,83.03
2022-09-28T04:01:51.327Z,90.47
2022-09-28T04:06:47.525Z,84.03
2022-09-28T04:12:02.764Z,92.97
2022-09-28T04:16:59.842Z,96.40
2022-09-28T04:21:56.160Z,87.40
2022-09-28T04:26:52.565Z,93.30
2022-09-28T04:31:50.425Z,91.53
2022-09-28T04:36:47.180Z,96.85
2022-09-28T04:41:43.501Z,98.00
2022-09-28T04:46:39.791Z,90.95
2022-09-28T04:51:36.127Z,93.80
2022-09-28T04:56:32.423Z,93.97
2022-09-28T05:01:29.966Z,101.30
2022-09-28T05:06:28.516Z,98.03
2022-09-28T05:11:24.960Z,97.13
2022-09-28T05:16:21.302Z,96.68
2022-09-28T05:21:19.945Z,96.55
2022-09-28T05:26:16.650Z,95.72
2022-09-28T05:31:13.196Z,96.50
2022-09-28T05:36:10.881Z,93.75
2022-09-28T05:41:07.273Z,89.70
2022-09-28T05:46:03.813Z,90.07
2022-09-28T05:51:00.082Z,91.38
2022-09-28T05:55:59.442Z,91.07
2022-09-28T06:00:55.894Z,90.25
2022-09-28T06:05:52.381Z,91.32
2022-09-28T06:10:48.683Z,89.63
2022-09-28T06:15:46.274Z,85.90
2022-09-28T06:20:42.833Z,90.28
2022-09-28T06:25:39.311Z,91.45
2022-09-28T06:30:38.024Z,88.32
2022-09-28T06:35:34.839Z,85.40
2022-09-28T06:40:31.278Z,80.55
2022-09-28T06:45:28.911Z,76.85
2022-09-28T06:50:26.075Z,79.18
2022-09-28T06:55:22.327Z,73.45
2022-09-28T07:00:18.563Z,71.65
2022-09-28T07:05:15.035Z,63.10
2022-09-28T07:10:12.780Z,65.50
2022-09-28T07:15:09.071Z,64.63
2022-09-28T07:20:17.105Z,64.03
2022-09-28T07:25:14.853Z,62.70
2022-09-28T07:30:11.504Z,58.33
2022-09-28T07:35:09.483Z,58.58
2022-09-28T07:40:25.324Z,58.88
2022-09-28T07:45:23.723Z,58.22
2022-09-28T07:50:21.059Z,59.22
2022-09-28T07:55:17.359Z,62.70
2022-09-28T08:00:13.815Z,59.17
2022-09-28T08:05:10.618Z,55.00
2022-09-28T08:10:07.315Z,58.80
2022-09-28T08:15:04.441Z,51.15
2022-09-28T08:20:30.051Z,55.72
2022-09-28T08:25:26.248Z,53.08
2022-09-28T08:30:22.584Z,51.00
2022-09-28T08:35:18.860Z,52.17
2022-09-28T08:40:20.146Z,46.90
2022-09-28T08:45:21.653Z,45.88
2022-09-28T08:50:22.313Z,43.83
2022-09-28T08:55:26.127Z,39.80
2022-09-28T09:00:33.273Z,35.40
2022-09-28T09:05:43.972Z,35.65
2022-09-28T09:10:40.191Z,30.15
2022-09-28T09:15:55.128Z,34.33
2022-09-28T09:20:58.975Z,35.58
2022-09-28T09:25:57.308Z,30.27
2022-09-28T09:31:02.733Z,30.60
2022-09-28T09:36:04.067Z,29.20
2022-09-28T09:41:06.537Z,28.15
2022-09-28T09:46:17.890Z,27.33
2022-09-28T09:51:29.855Z,29.77
2022-09-28T09:56:43.440Z,27.90
2022-09-28T10:01:40.434Z,26.27
2022-09-28T10:06:37.366Z,24.13
2022-09-28T10:11:36.655Z,27.38
2022-09-28T10:16:33.124Z,26.00
2022-09-28T10:21:29.887Z,24.48
2022-09-28T10:26:46.849Z,24.55
2022-09-28T10:31:48.292Z,24.05
2022-09-28T10:36:46.675Z,22.27
2022-09-28T10:41:48.811Z,21.77
2022-09-28T10:46:55.129Z,20.88
2022-09-28T10:51:53.475Z,19.98
2022-09-28T10:56:50.403Z,17.50
2022-09-28T11:01:46.762Z,18.17
2022-09-28T11:06:43.028Z,18.67
2022-09-28T11:11:42.773Z,18.83
2022-09-28T11:16:39.082Z,16.98
2022-09-28T11:21:42.478Z,17.70
2022-09-28T11:26:49.455Z,14.65
2022-09-28T11:31:46.501Z,17.95
2022-09-28T11:36:53.340Z,17.45
2022-09-28T11:41:49.521Z,13.30
2022-09-28T11:46:54.541Z,12.63
2022-09-28T11:51:52.790Z,12.07
2022-09-28T11:56:50.319Z,9.60
2022-09-28T12:01:57.312Z,9.25
2022-09-28T12:06:56.850Z,10.95
2022-09-28T12:11:56.319Z,9.77
2022-09-28T12:17:07.729Z,9.00
2022-09-28T12:22:09.596Z,9.88
2022-09-28T12:27:16.842Z,9.52
2022-09-28T12:32:31.777Z,8.68
2022-09-28T12:37:46.606Z,7.78
2022-09-28T12:43:01.428Z,7.18
2022-09-28T12:48:08.734Z,7.00
2022-09-28T12:53:25.863Z,6.30
2022-09-28T12:58:31.197Z,6.20
2022-09-28T13:03:44.929Z,6.75
2022-09-28T13:08:41.453Z,5.45
2022-09-28T13:13:56.197Z,6.18
2022-09-28T13:18:52.467Z,5.80
2022-09-28T13:23:50.255Z,6.20
2022-09-28T13:28:46.966Z,5.75
2022-09-28T13:33:44.291Z,5.78
2022-09-28T13:38:47.260Z,5.55
2022-09-28T13:44:01.902Z,5.30
2022-09-28T13:48:58.057Z,5.30
2022-09-28T13:54:26.859Z,5.70
2022-09-28T13:59:27.750Z,5.68
2022-09-28T14:04:42.921Z,5.30
2022-09-28T14:09:44.287Z,4.78
2022-09-28T14:14:48.788Z,4.80
2022-09-28T14:19:46.660Z,5.18
2022-09-28T14:24:55.395Z,5.43
2022-09-28T14:30:05.124Z,4.95
2022-09-28T14:35:04.556Z,5.35
2022-09-28T14:40:26.864Z,5.47
2022-09-28T14:45:33.739Z,5.50
2022-09-28T14:50:30.133Z,5.75
2022-09-28T14:55:28.845Z,5.40
2022-09-28T15:00:28.184Z,5.10
2022-09-28T15:05:28.373Z,5.53
2022-09-28T15:10:28.213Z,5.28
2022-09-28T15:15:30.530Z,5.40
2022-09-28T15:20:30.294Z,5.20
2022-09-28T15:25:27.770Z,5.35
2022-09-28T15:30:24.098Z,6.22
2022-09-28T15:35:26.125Z,5.38
2022-09-28T15:40:32.897Z,5.65
2022-09-28T15:45:33.145Z,5.70
2022-09-28T15:50:29.832Z,5.57
2022-09-28T15:55:28.235Z,5.70
2022-09-28T16:00:26.498Z,5.85
2022-09-28T16:05:45.237Z,5.53
2022-09-28T16:10:51.453Z,5.95
2022-09-28T16:15:54.938Z,5.70
2022-09-28T16:20:51.977Z,6.07
2022-09-28T16:25:53.263Z,6.13
2022-09-28T16:31:06.165Z,6.95
2022-09-28T16:36:03.213Z,7.20
2022-09-28T16:41:03.106Z,7.32
2022-09-28T16:46:00.919Z,8.25
2022-09-28T16:50:57.849Z,7.65
2022-09-28T16:55:54.187Z,9.05
2022-09-28T17:00:51.887Z,8.65
2022-09-28T17:05:48.191Z,9.73
2022-09-28T17:11:13.215Z,10.27
2022-09-28T17:16:12.943Z,9.70
2022-09-28T17:21:16.676Z,10.88
2022-09-28T17:26:19.028Z,10.80
2022-09-28T17:31:16.844Z,10.82
2022-09-28T17:36:15.209Z,12.38
2022-09-28T17:41:14.810Z,12.90
2022-09-28T17:46:21.082Z,13.70
2022-09-28T17:51:17.387Z,13.88
2022-09-28T17:56:13.588Z,14.52
2022-09-28T18:01:09.812Z,17.05
2022-09-28T18:06:07.524Z,16.58
2022-09-28T18:11:04.176Z,18.30
2022-09-28T18:16:00.547Z,21.63
2022-09-28T18:20:56.909Z,21.35
2022-09-28T18:25:53.164Z,23.25
2022-09-28T18:30:49.503Z,23.33
2022-09-28T18:35:54.855Z,29.33
2022-09-28T18:40:51.204Z,28.20
2022-09-28T18:45:47.507Z,28.70
2022-09-28T18:50:43.748Z,30.83
2022-09-28T18:55:40.757Z,31.67
2022-09-28T19:00:38.499Z,31.60
2022-09-28T19:05:34.972Z,31.02
2022-09-28T19:10:31.208Z,35.05
2022-09-28T19:15:27.447Z,32.70
2022-09-28T19:20:23.739Z,31.80
2022-09-28T19:25:19.943Z,32.75
2022-09-28T19:30:16.235Z,33.33
2022-09-28T19:35:14.105Z,33.45
2022-09-28T19:40:10.332Z,36.15
2022-09-28T19:45:08.859Z,36.15
2022-09-28T19:50:05.480Z,37.65
2022-09-28T19:55:01.670Z,35.67
2022-09-28T20:00:02.350Z,41.45
2022-09-28T20:04:59.408Z,40.00
2022-09-28T20:09:55.593Z,43.88
2022-09-28T20:14:51.780Z,47.33
2022-09-28T20:19:48.000Z,46.40
2022-09-28T20:24:44.280Z,45.35
2022-09-28T20:29:42.804Z,44.70
2022-09-28T20:34:39.045Z,42.95
2022-09-28T20:39:35.253Z,43.78
2022-09-28T20:44:31.471Z,41.03
2022-09-28T20:49:28.075Z,45.13
2022-09-28T20:54:24.536Z,44.38
2022-09-28T20:59:24.190Z,48.53
2022-09-28T21:04:20.526Z,47.20
2022-09-28T21:09:16.884Z,44.90
2022-09-28T21:14:13.162Z,47.53
2022-09-28T21:19:09.386Z,55.10
2022-09-28T21:24:05.729Z,54.75
2022-09-28T21:29:03.154Z,56.97
2022-09-28T21:33:59.498Z,54.40
2022-09-28T21:38:56.014Z,56.75
2022-09-28T21:43:52.362Z,50.58
2022-09-28T21:48:53.320Z,50.80
2022-09-28T21:53:49.632Z,52.90
2022-09-28T21:58:46.644Z,52.60
2022-09-28T22:03:43.880Z,48.33
2022-09-28T22:08:40.189Z,48.00
2022-09-28T22:13:38.719Z,47.70
2022-09-28T22:18:34.998Z,49.17
2022-09-28T22:23:31.236Z,48.40
2022-09-28T22:28:28.077Z,49.22
2022-09-28T22:33:24.423Z,52.25
2022-09-28T22:38:21.600Z,51.20
2022-09-28T22:43:18.675Z,50.75
2022-09-28T22:48:15.272Z,49.85
2022-09-28T22:53:13.316Z,54.47
2022-09-28T22:58:09.647Z,51.22
2022-09-28T23:03:06.021Z,52.47
2022-09-28T23:08:03.103Z,53.90
2022-09-28T23:12:59.538Z,57.03
2022-09-28T23:17:55.758Z,51.08
2022-09-28T23:22:51.987Z,54.80
2022-09-28T23:27:48.848Z,56.38
2022-09-28T23:32:45.600Z,58.63
2022-09-28T23:37:41.785Z,54.97
2022-09-28T23:42:38.114Z,57.72
2022-09-28T23:47:37.164Z,57.15
2022-09-28T23:52:33.604Z,59.28
2022-09-28T23:57:29.815Z,60.67
